Zeus — V2OR — position and weather

sailwx.info

Track history (hours):
 
Tides and Currents Weather Stations Pressure Air Temp Water Temp Dewpoint Dewpoint Depression Visibility Wind Speed Wind Dir Waves Ship Positions

Zeus

Last reported at 2015-Apr-12 20:24 UTC. Time now 2015-Apr-18 20:49 UTC.
Position N 55°39' E 015°31'.

Length 90 m; draft 4.5 m.

Type: Cargo ship. MMSI: 304011025.

Date/timePositionNaut miles runAvg speedWind from/ knotsBaromVisibWave heightAir tempDewpointWater temp
2015-Apr-12 20:24N 55°39' E 015°31'7 8.8
2015-Apr-12 19:33N 55°35' E 015°20'9 9.1
2015-Apr-12 18:33N 55°31' E 015°06'9 9.4
2015-Apr-12 17:33N 55°27' E 014°51'9 9.2
2015-Apr-12 16:33N 55°22' E 014°37'11 9.2
2015-Apr-12 15:24N 55°13' E 014°26'8 9.4
2015-Apr-12 14:33N 55°07' E 014°18'10 9.1
2015-Apr-12 13:27N 54°60' E 014°06'11 9.5
2015-Apr-12 12:21N 54°56' E 013°49'7 9.4
2015-Apr-12 11:33N 54°53' E 013°37'10 9.8
2015-Apr-12 10:33N 54°49' E 013°21'10 9.8
2015-Apr-12 09:33N 54°45' E 013°06'10 9.7
2015-Apr-12 08:33N 54°41' E 012°50'9 9.5
2015-Apr-12 07:33N 54°37' E 012°35'10 9.7
2015-Apr-12 06:33N 54°32' E 012°21'9 9.2
2015-Apr-12 05:32N 54°25' E 012°10'9 9.0
2015-Apr-12 04:33N 54°24' E 011°55'9 9.1
2015-Apr-12 03:33N 54°25' E 011°40'9 9.5
2015-Apr-12 02:33N 54°30' E 011°26'9 9.5
2015-Apr-12 01:33N 54°34' E 011°11'12 9.5
2015-Apr-12 00:15N 54°34' E 010°50'16 9.3
2015-Apr-11 22:33N 54°30' E 010°23'9 9.0
2015-Apr-11 21:33N 54°24' E 010°12'3 2.8
2015-Apr-11 20:33N 54°22' E 010°08'6 5.9
2015-Apr-11 19:33N 54°21' E 009°59'8 7.5
2015-Apr-11 18:33N 54°21' E 009°46'4 3.8
2015-Apr-11 17:33N 54°18' E 009°42'8 7.7
2015-Apr-11 16:33N 54°12' E 009°33'9 8.6
2015-Apr-11 15:32N 54°08' E 009°20'7 6.8
2015-Apr-11 14:33N 54°01' E 009°18'8 8.4
2015-Apr-11 13:33N 53°54' E 009°10'2 2.5
2015-Apr-11 12:33N 53°53' E 009°06'3 2.8
2015-Apr-11 11:33N 53°52' E 009°02'6 6.1
2015-Apr-11 10:33N 53°50' E 008°52'5 5.1
2015-Apr-11 09:33N 53°52' E 008°44'5 4.8
2015-Apr-11 08:33N 53°56' E 008°39'6 5.6
2015-Apr-11 07:33N 53°58' E 008°31'7 6.5
2015-Apr-11 06:33N 53°59' E 008°20'8 8.1
2015-Apr-11 05:33N 53°58' E 008°06'8 8.4
2015-Apr-11 04:33N 53°57' E 007°52'9 9.3
2015-Apr-11 03:33N 53°55' E 007°37'5210.4
2015-Apr-10 22:32N 53°42' E 006°11'1010.4
2015-Apr-10 21:33N 53°39' E 005°55'1010.3
2015-Apr-10 20:32N 53°36' E 005°38'1010.0
2015-Apr-10 19:33N 53°33' E 005°22'9 9.4
2015-Apr-10 18:33N 53°29' E 005°08'9 8.6
2015-Apr-10 17:33N 53°26' E 004°54'16 7.8
2015-Apr-10 15:33N 53°15' E 004°36'10 8.3
2015-Apr-10 14:20N 53°06' E 004°28'7 8.4
2015-Apr-10 13:33N 53°00' E 004°23'8 8.4
2015-Apr-10 12:33N 52°53' E 004°17'8 8.4
2015-Apr-10 11:33N 52°46' E 004°09'9 8.8
2015-Apr-10 10:33N 52°40' E 003°59'9 9.2
2015-Apr-10 09:32N 52°33' E 003°48'23 9.8
2015-Apr-10 07:11N 52°17' E 003°21'4910.6
2015-Apr-10 02:32N 51°39' E 002°30'9 9.5
2015-Apr-10 01:33N 51°32' E 002°20'9 8.6
2015-Apr-10 00:33N 51°24' E 002°13'8 7.9
2015-Apr-09 23:33N 51°17' E 002°07'7 7.1
2015-Apr-09 22:33N 51°12' E 001°59'7 7.2
2015-Apr-09 21:33N 51°08' E 001°50'7 7.1
2015-Apr-09 20:33N 51°03' E 001°42'8 7.7
2015-Apr-09 19:33N 50°57' E 001°34'11 9.0
2015-Apr-09 18:20N 50°48' E 001°24'106 9.6
2015-Apr-09 07:19N 50°17' W 001°16'52 7.4
2015-Apr-09 00:20N 50°13' W 002°37'810.3
2015-Apr-08 23:33N 50°12' W 002°49'1010.4
2015-Apr-08 22:33N 50°11' W 003°05'1010.4
2015-Apr-08 21:33N 50°10' W 003°22'64 9.1
2015-Apr-08 14:31N 50°07' W 005°02'83 6.9
2015-Apr-08 02:33N 48°53' W 005°59'8 8.4
2015-Apr-08 01:33N 48°46' W 006°06'7 7.3
2015-Apr-08 00:33N 48°40' W 006°11'13 6.6
2015-Apr-07 22:33N 48°28' W 006°20'38 7.7
2015-Apr-07 17:33N 47°54' W 006°46'  
2015-Apr-05 03:19N 41°28' W 010°10'8 7.9
2015-Apr-05 02:23N 41°21' W 010°12'22 7.9
2015-Apr-04 23:31N 40°59' W 010°17'7 7.7
2015-Apr-04 22:33N 40°52' W 010°19'8 7.7
2015-Apr-04 21:32N 40°44' W 010°21'8 7.6
2015-Apr-04 20:32N 40°37' W 010°23'7 7.4
2015-Apr-04 19:32N 40°29' W 010°25'8 7.3
2015-Apr-04 18:28N 40°22' W 010°27'7 7.3
2015-Apr-04 17:33N 40°15' W 010°28'7 7.5
2015-Apr-04 16:33N 40°08' W 010°30'8 7.5
2015-Apr-04 15:32N 40°00' W 010°32'7 7.5
2015-Apr-04 14:33N 39°53' W 010°33'7 7.5
2015-Apr-04 13:33N 39°46' W 010°36'7 7.3
2015-Apr-04 12:33N 39°38' W 010°38'7 7.3
2015-Apr-04 11:33N 39°31' W 010°39'7 7.1
2015-Apr-04 10:33N 39°24' W 010°41'7 7.1
2015-Apr-04 09:33N 39°17' W 010°43'7 7.3
2015-Apr-04 08:34N 39°10' W 010°45'7 7.5
2015-Apr-04 07:33N 39°03' W 010°46'8 7.8
2015-Apr-04 06:33N 38°55' W 010°48'8 7.8
2015-Apr-04 05:33N 38°48' W 010°50'8 8.1
2015-Apr-04 04:32N 38°40' W 010°52'8 8.4
2015-Apr-04 03:33N 38°31' W 010°54'8 8.4
2015-Apr-04 02:33N 38°23' W 010°56'9 8.6
2015-Apr-04 01:33N 38°15' W 010°58'9 8.9
2015-Apr-04 00:33N 38°06' W 011°00'9 9.1
2015-Apr-03 23:33N 37°57' W 011°02'9 9.1
2015-Apr-03 22:33N 37°48' W 011°04'11 9.0
2015-Apr-03 21:23N 37°38' W 011°07'7 9.0
2015-Apr-03 20:33N 37°30' W 011°08'196 8.8
2015-Apr-02 22:23N 34°18' W 011°53'9 8.6
2015-Apr-02 21:22N 34°09' W 011°56'  
Track history (hours):
 
Tides and Currents Weather Stations Pressure Air Temp Water Temp Dewpoint Dewpoint Depression Visibility Wind Speed Wind Dir Waves Ship Positions

Zeus

Last reported at 2015-Apr-12 20:24 UTC. Time now 2015-Apr-18 20:49 UTC.
Position N 55°39' E 015°31'.

Length 90 m; draft 4.5 m.

Type: Cargo ship. MMSI: 304011025.

Date/timePositionNaut miles runAvg speedWind from/ knotsBaromVisibWave heightAir tempDewpointWater temp
2015-Apr-12 20:24N 55°39' E 015°31'7 8.8
2015-Apr-12 19:33N 55°35' E 015°20'9 9.1
2015-Apr-12 18:33N 55°31' E 015°06'9 9.4
2015-Apr-12 17:33N 55°27' E 014°51'9 9.2
2015-Apr-12 16:33N 55°22' E 014°37'11 9.2
2015-Apr-12 15:24N 55°13' E 014°26'8 9.4
2015-Apr-12 14:33N 55°07' E 014°18'10 9.1
2015-Apr-12 13:27N 54°60' E 014°06'11 9.5
2015-Apr-12 12:21N 54°56' E 013°49'7 9.4
2015-Apr-12 11:33N 54°53' E 013°37'10 9.8
2015-Apr-12 10:33N 54°49' E 013°21'10 9.8
2015-Apr-12 09:33N 54°45' E 013°06'10 9.7
2015-Apr-12 08:33N 54°41' E 012°50'9 9.5
2015-Apr-12 07:33N 54°37' E 012°35'10 9.7
2015-Apr-12 06:33N 54°32' E 012°21'9 9.2
2015-Apr-12 05:32N 54°25' E 012°10'9 9.0
2015-Apr-12 04:33N 54°24' E 011°55'9 9.1
2015-Apr-12 03:33N 54°25' E 011°40'9 9.5
2015-Apr-12 02:33N 54°30' E 011°26'9 9.5
2015-Apr-12 01:33N 54°34' E 011°11'12 9.5
2015-Apr-12 00:15N 54°34' E 010°50'16 9.3
2015-Apr-11 22:33N 54°30' E 010°23'9 9.0
2015-Apr-11 21:33N 54°24' E 010°12'3 2.8
2015-Apr-11 20:33N 54°22' E 010°08'6 5.9
2015-Apr-11 19:33N 54°21' E 009°59'8 7.5
2015-Apr-11 18:33N 54°21' E 009°46'4 3.8
2015-Apr-11 17:33N 54°18' E 009°42'8 7.7
2015-Apr-11 16:33N 54°12' E 009°33'9 8.6
2015-Apr-11 15:32N 54°08' E 009°20'7 6.8
2015-Apr-11 14:33N 54°01' E 009°18'8 8.4
2015-Apr-11 13:33N 53°54' E 009°10'2 2.5
2015-Apr-11 12:33N 53°53' E 009°06'3 2.8
2015-Apr-11 11:33N 53°52' E 009°02'6 6.1
2015-Apr-11 10:33N 53°50' E 008°52'5 5.1
2015-Apr-11 09:33N 53°52' E 008°44'5 4.8
2015-Apr-11 08:33N 53°56' E 008°39'6 5.6
2015-Apr-11 07:33N 53°58' E 008°31'7 6.5
2015-Apr-11 06:33N 53°59' E 008°20'8 8.1
2015-Apr-11 05:33N 53°58' E 008°06'8 8.4
2015-Apr-11 04:33N 53°57' E 007°52'9 9.3
2015-Apr-11 03:33N 53°55' E 007°37'5210.4
2015-Apr-10 22:32N 53°42' E 006°11'1010.4
2015-Apr-10 21:33N 53°39' E 005°55'1010.3
2015-Apr-10 20:32N 53°36' E 005°38'1010.0
2015-Apr-10 19:33N 53°33' E 005°22'9 9.4
2015-Apr-10 18:33N 53°29' E 005°08'9 8.6
2015-Apr-10 17:33N 53°26' E 004°54'16 7.8
2015-Apr-10 15:33N 53°15' E 004°36'10 8.3
2015-Apr-10 14:20N 53°06' E 004°28'7 8.4
2015-Apr-10 13:33N 53°00' E 004°23'8 8.4
2015-Apr-10 12:33N 52°53' E 004°17'8 8.4
2015-Apr-10 11:33N 52°46' E 004°09'9 8.8
2015-Apr-10 10:33N 52°40' E 003°59'9 9.2
2015-Apr-10 09:32N 52°33' E 003°48'23 9.8
2015-Apr-10 07:11N 52°17' E 003°21'4910.6
2015-Apr-10 02:32N 51°39' E 002°30'9 9.5
2015-Apr-10 01:33N 51°32' E 002°20'9 8.6
2015-Apr-10 00:33N 51°24' E 002°13'8 7.9
2015-Apr-09 23:33N 51°17' E 002°07'7 7.1
2015-Apr-09 22:33N 51°12' E 001°59'7 7.2
2015-Apr-09 21:33N 51°08' E 001°50'7 7.1
2015-Apr-09 20:33N 51°03' E 001°42'8 7.7
2015-Apr-09 19:33N 50°57' E 001°34'11 9.0
2015-Apr-09 18:20N 50°48' E 001°24'106 9.6
2015-Apr-09 07:19N 50°17' W 001°16'52 7.4
2015-Apr-09 00:20N 50°13' W 002°37'810.3
2015-Apr-08 23:33N 50°12' W 002°49'1010.4
2015-Apr-08 22:33N 50°11' W 003°05'1010.4
2015-Apr-08 21:33N 50°10' W 003°22'64 9.1
2015-Apr-08 14:31N 50°07' W 005°02'83 6.9
2015-Apr-08 02:33N 48°53' W 005°59'8 8.4
2015-Apr-08 01:33N 48°46' W 006°06'7 7.3
2015-Apr-08 00:33N 48°40' W 006°11'13 6.6
2015-Apr-07 22:33N 48°28' W 006°20'38 7.7
2015-Apr-07 17:33N 47°54' W 006°46'  
2015-Apr-05 03:19N 41°28' W 010°10'8 7.9
2015-Apr-05 02:23N 41°21' W 010°12'22 7.9
2015-Apr-04 23:31N 40°59' W 010°17'7 7.7
2015-Apr-04 22:33N 40°52' W 010°19'8 7.7
2015-Apr-04 21:32N 40°44' W 010°21'8 7.6
2015-Apr-04 20:32N 40°37' W 010°23'7 7.4
2015-Apr-04 19:32N 40°29' W 010°25'8 7.3
2015-Apr-04 18:28N 40°22' W 010°27'7 7.3
2015-Apr-04 17:33N 40°15' W 010°28'7 7.5
2015-Apr-04 16:33N 40°08' W 010°30'8 7.5
2015-Apr-04 15:32N 40°00' W 010°32'7 7.5
2015-Apr-04 14:33N 39°53' W 010°33'7 7.5
2015-Apr-04 13:33N 39°46' W 010°36'7 7.3
2015-Apr-04 12:33N 39°38' W 010°38'7 7.3
2015-Apr-04 11:33N 39°31' W 010°39'7 7.1
2015-Apr-04 10:33N 39°24' W 010°41'7 7.1
2015-Apr-04 09:33N 39°17' W 010°43'7 7.3
2015-Apr-04 08:34N 39°10' W 010°45'7 7.5
2015-Apr-04 07:33N 39°03' W 010°46'8 7.8
2015-Apr-04 06:33N 38°55' W 010°48'8 7.8
2015-Apr-04 05:33N 38°48' W 010°50'8 8.1
2015-Apr-04 04:32N 38°40' W 010°52'8 8.4
2015-Apr-04 03:33N 38°31' W 010°54'8 8.4
2015-Apr-04 02:33N 38°23' W 010°56'9 8.6
2015-Apr-04 01:33N 38°15' W 010°58'9 8.9
2015-Apr-04 00:33N 38°06' W 011°00'9 9.1
2015-Apr-03 23:33N 37°57' W 011°02'9 9.1
2015-Apr-03 22:33N 37°48' W 011°04'11 9.0
2015-Apr-03 21:23N 37°38' W 011°07'7 9.0
2015-Apr-03 20:33N 37°30' W 011°08'196 8.8
2015-Apr-02 22:23N 34°18' W 011°53'9 8.6
2015-Apr-02 21:22N 34°09' W 011°56'  

Dump ship's entire track history